Time;durP1;ratioP1;P1;durP2;ratioP2;P2;SDS_P1;SDS_P2;PMS_P1;PMS_P2;Temp;Humidity;BMP_temperature;BMP_pressure;BME280_temperature;BME280_humidity;BME280_pressure;Samples;Min_cycle;Max_cycle;Signal;HPM_P1;HPM_P2
2023/09/25 11:14:54;;;;;;;0.63;0.60;;;;;;;23.32;52.06;101744.13;5089151;27;20763;-62
2023/09/25 11:17:20;;;;;;;1.23;0.60;;;;;;;23.04;50.68;101734.28;5064746;28;20122;-60
2023/09/25 11:19:45;;;;;;;0.70;0.52;;;;;;;23.03;50.96;101734.69;5055603;28;20542;-61
2023/09/25 11:22:11;;;;;;;0.88;0.65;;;;;;;23.15;50.57;101734.91;5062984;28;20039;-60
2023/09/25 11:24:37;;;;;;;0.93;0.75;;;;;;;23.01;50.16;101739.81;5058686;28;20162;-62
2023/09/25 11:27:09;;;;;;;0.77;0.50;;;;;;;23.14;50.63;101733.34;5072520;28;20043;-61
2023/09/25 11:29:37;;;;;;;0.52;0.50;;;;;;;23.12;49.97;101741.22;5063937;28;20033;-61
2023/09/25 11:32:04;;;;;;;0.85;0.68;;;;;;;23.07;50.65;101727.94;5062385;28;20493;-61
2023/09/25 11:34:29;;;;;;;0.63;0.50;;;;;;;23.20;50.39;101728.94;5062330;28;20483;-62
2023/09/25 11:36:57;;;;;;;1.48;0.70;;;;;;;23.01;50.37;101728.81;5069235;28;20082;-61
2023/09/25 11:39:24;;;;;;;0.80;0.60;;;;;;;23.20;51.17;101723.44;5063419;28;20116;-62
2023/09/25 11:41:51;;;;;;;0.65;0.40;;;;;;;23.39;51.66;101721.22;5065779;28;20446;-62
2023/09/25 11:44:16;;;;;;;0.55;0.50;;;;;;;23.56;51.21;101715.47;5065942;28;20491;-62
2023/09/25 11:46:42;;;;;;;1.02;0.70;;;;;;;23.38;49.29;101714.97;5064013;28;20378;-62
2023/09/25 11:49:07;;;;;;;1.02;0.60;;;;;;;23.35;47.61;101712.25;5065295;28;20037;-62
2023/09/25 11:51:33;;;;;;;3.28;0.50;;;;;;;23.19;47.06;101713.63;5064312;28;20033;-62
2023/09/25 11:53:59;;;;;;;2.97;0.50;;;;;;;23.33;46.68;101715.44;5063197;28;20497;-60
2023/09/25 11:56:24;;;;;;;0.98;0.43;;;;;;;23.32;47.55;101713.09;5068623;28;20117;-60
2023/09/25 11:58:50;;;;;;;1.00;0.40;;;;;;;23.40;47.22;101714.56;5065160;28;20043;-62
2023/09/25 12:01:19;;;;;;;1.02;0.50;;;;;;;23.32;46.32;101693.84;5058403;28;20494;-60
2023/09/25 12:03:45;;;;;;;1.00;0.50;;;;;;;22.98;46.28;101693.91;5060223;28;20037;-62
2023/09/25 12:06:10;;;;;;;1.17;0.43;;;;;;;23.11;47.25;101698.44;5063947;28;20521;-62
2023/09/25 12:08:38;;;;;;;2.50;0.52;;;;;;;23.24;47.57;101693.94;5070500;28;20064;-61
2023/09/25 12:11:04;;;;;;;1.00;0.63;;;;;;;23.18;47.11;101692.84;5058703;28;20435;-60
2023/09/25 12:13:30;;;;;;;0.50;0.40;;;;;;;23.21;46.40;101688.47;5060561;28;20055;-61
2023/09/25 12:15:55;;;;;;;0.65;0.50;;;;;;;23.10;47.54;101679.59;5057654;28;20657;-62
2023/09/25 12:18:22;;;;;;;1.40;0.55;;;;;;;23.36;47.66;101678.84;5058257;28;20545;-61
2023/09/25 12:20:47;;;;;;;0.47;0.47;;;;;;;23.32;46.39;101688.34;5066928;28;20089;-59
2023/09/25 12:23:12;;;;;;;3.22;0.73;;;;;;;23.07;46.86;101683.19;5065136;28;20032;-62
2023/09/25 12:25:38;;;;;;;1.00;0.50;;;;;;;23.19;45.82;101685.34;5056870;28;20036;-59
2023/09/25 12:28:04;;;;;;;0.60;0.50;;;;;;;23.06;46.40;101671.41;5053331;28;20452;-62
2023/09/25 12:30:29;;;;;;;1.15;0.70;;;;;;;23.31;45.19;101679.31;5053375;28;20507;-59
2023/09/25 12:32:55;;;;;;;0.55;0.47;;;;;;;23.18;47.09;101672.81;5049218;28;20036;-61
2023/09/25 12:35:20;;;;;;;0.70;0.60;;;;;;;23.03;46.40;101674.22;5051624;28;20017;-59
2023/09/25 12:37:47;;;;;;;0.80;0.57;;;;;;;23.29;46.15;101671.47;5053030;28;20537;-62
2023/09/25 12:40:15;;;;;;;0.80;0.50;;;;;;;23.43;46.97;101669.69;5044772;28;20124;-60
2023/09/25 12:42:42;;;;;;;0.57;0.57;;;;;;;23.54;47.28;101673.06;5053378;28;20040;-60
2023/09/25 12:45:08;;;;;;;0.60;0.57;;;;;;;23.69;46.45;101674.38;5050782;28;20500;-62
2023/09/25 12:47:35;;;;;;;1.48;0.73;;;;;;;23.52;46.06;101672.72;5048739;28;20033;-61
2023/09/25 12:50:01;;;;;;;0.70;0.52;;;;;;;23.37;45.37;101674.13;5048405;28;20029;-62
2023/09/25 12:52:27;;;;;;;1.10;0.50;;;;;;;23.33;45.87;101676.94;5033480;28;20037;-62
2023/09/25 12:54:53;;;;;;;0.75;0.50;;;;;;;23.57;46.24;101684.00;5039060;28;20507;-62
2023/09/25 12:57:19;;;;;;;1.40;0.57;;;;;;;23.75;45.15;101689.22;5042504;28;20022;-62
2023/09/25 12:59:45;;;;;;;1.67;0.75;;;;;;;23.59;45.47;101686.34;5045755;28;20285;-62
2023/09/25 13:02:11;;;;;;;1.02;0.35;;;;;;;23.59;44.45;101683.59;5047483;28;20033;-58
2023/09/25 13:04:36;;;;;;;0.70;0.60;;;;;;;23.48;45.37;101683.00;5042236;28;20163;-62
2023/09/25 13:07:02;;;;;;;0.70;0.60;;;;;;;23.39;44.94;101683.50;5047346;28;20036;-62
2023/09/25 13:09:27;;;;;;;0.80;0.60;;;;;;;23.50;45.62;101692.38;5046954;28;20028;-59
2023/09/25 13:11:54;;;;;;;1.27;0.60;;;;;;;23.34;44.55;101697.75;5050567;28;20047;-60
2023/09/25 13:14:20;;;;;;;0.88;0.50;;;;;;;23.41;44.71;101691.34;5037244;28;20033;-62
2023/09/25 13:16:45;;;;;;;1.40;0.50;;;;;;;23.51;45.20;101696.69;5034635;28;20037;-62
2023/09/25 13:19:11;;;;;;;0.93;0.63;;;;;;;23.48;45.62;101696.75;5044419;28;20032;-62
2023/09/25 13:21:36;;;;;;;0.73;0.40;;;;;;;23.52;45.54;101694.72;5040283;28;20546;-63
2023/09/25 13:24:02;;;;;;;1.02;0.63;;;;;;;23.42;45.14;101706.66;5042275;28;20387;-61
2023/09/25 13:26:28;;;;;;;1.48;0.40;;;;;;;23.18;45.92;101703.06;5052318;28;20460;-62
2023/09/25 13:28:55;;;;;;;0.90;0.50;;;;;;;23.21;45.69;101697.50;5058738;28;20115;-61
2023/09/25 13:31:22;;;;;;;1.65;0.70;;;;;;;23.35;46.46;101693.00;5051955;28;20027;-59
2023/09/25 13:33:48;;;;;;;1.42;0.60;;;;;;;23.30;45.65;101708.78;5048405;28;20056;-61
2023/09/25 13:36:14;;;;;;;2.53;0.70;;;;;;;23.24;45.49;101710.44;5049855;28;20547;-61
2023/09/25 13:38:40;;;;;;;0.80;0.57;;;;;;;23.21;45.48;101703.00;5046266;28;20177;-60
2023/09/25 13:41:06;;;;;;;0.60;0.40;;;;;;;23.28;45.34;101707.63;5044938;28;20079;-58
2023/09/25 13:43:37;;;;;;;1.20;0.50;;;;;;;23.22;45.28;101704.56;5045152;28;20040;-59
2023/09/25 13:46:05;;;;;;;0.63;0.50;;;;;;;23.17;45.32;101702.28;5043056;28;20560;-59
2023/09/25 13:48:35;;;;;;;10.93;1.58;;;;;;;23.12;45.61;101701.97;5045695;28;20345;-59
2023/09/25 13:51:04;;;;;;;0.80;0.50;;;;;;;23.04;46.01;101708.75;5047163;28;20544;-59
2023/09/25 13:53:35;;;;;;;0.75;0.57;;;;;;;23.06;46.14;101698.91;5037373;28;20044;-61
2023/09/25 13:56:04;;;;;;;2.20;0.60;;;;;;;23.17;46.51;101702.28;5024297;28;20057;-62
2023/09/25 13:58:31;;;;;;;1.88;0.57;;;;;;;23.17;45.86;101698.75;5048599;28;20119;-61
2023/09/25 14:00:59;;;;;;;0.50;0.50;;;;;;;23.19;46.22;101694.38;5046278;28;20479;-62
2023/09/25 14:03:26;;;;;;;0.95;0.63;;;;;;;22.98;46.56;101689.19;5044499;28;20116;-62
2023/09/25 14:05:51;;;;;;;0.63;0.40;;;;;;;22.97;46.43;101690.41;5049211;28;20033;-61
2023/09/25 14:08:17;;;;;;;0.68;0.47;;;;;;;23.01;46.59;101684.84;5042242;28;20039;-62
2023/09/25 14:10:42;;;;;;;2.80;0.70;;;;;;;23.04;47.13;101684.00;5045138;28;20033;-60
2023/09/25 14:13:08;;;;;;;2.47;0.70;;;;;;;23.06;46.99;101682.41;5045303;28;20041;-61
2023/09/25 14:15:34;;;;;;;1.13;0.50;;;;;;;23.14;47.06;101688.59;5046617;28;20041;-61
2023/09/25 14:18:01;;;;;;;0.90;0.55;;;;;;;23.18;47.15;101687.34;5037826;28;20032;-59
2023/09/25 14:20:27;;;;;;;1.70;0.73;;;;;;;23.10;46.77;101688.63;5028424;28;20402;-60
2023/09/25 14:22:52;;;;;;;0.50;0.47;;;;;;;23.18;47.46;101686.56;5026224;28;20403;-60
2023/09/25 14:25:18;;;;;;;3.45;0.68;;;;;;;23.22;48.02;101688.06;5030983;28;20033;-62
2023/09/25 14:27:43;;;;;;;0.68;0.50;;;;;;;23.24;47.23;101688.44;5043981;28;20029;-59
2023/09/25 14:30:12;;;;;;;0.50;0.50;;;;;;;23.21;48.44;101689.25;5036492;28;20442;-62
2023/09/25 14:32:40;;;;;;;1.15;0.50;;;;;;;23.23;47.94;101688.81;5038421;28;20126;-61
2023/09/25 14:35:06;;;;;;;0.57;0.50;;;;;;;23.21;48.69;101686.50;5039386;28;20435;-60
2023/09/25 14:37:34;;;;;;;2.17;0.73;;;;;;;23.14;49.68;101686.63;5038096;28;20040;-59
2023/09/25 14:40:01;;;;;;;0.60;0.60;;;;;;;23.07;49.75;101688.69;5024408;28;20124;-62
2023/09/25 14:42:30;;;;;;;1.25;0.80;;;;;;;23.12;49.25;101689.00;5025803;28;20028;-60
2023/09/25 14:44:55;;;;;;;1.23;0.73;;;;;;;23.08;49.30;101677.28;5026701;28;20057;-60
2023/09/25 14:47:21;;;;;;;1.50;0.90;;;;;;;23.15;48.81;101673.66;5028575;28;20120;-60
2023/09/25 14:49:49;;;;;;;0.60;0.40;;;;;;;23.15;49.01;101673.66;5048238;28;20032;-61
2023/09/25 14:52:14;;;;;;;0.93;0.70;;;;;;;23.10;48.17;101669.41;5030639;28;20040;-57
2023/09/25 14:54:40;;;;;;;1.35;0.55;;;;;;;23.03;48.09;101669.50;5021986;28;20040;-59
2023/09/25 14:57:05;;;;;;;1.23;0.70;;;;;;;23.00;47.99;101670.31;5042473;28;20043;-58
2023/09/25 14:59:31;;;;;;;1.13;0.60;;;;;;;23.11;47.90;101676.44;5044727;28;20039;-59
2023/09/25 15:01:56;;;;;;;2.10;0.77;;;;;;;22.98;48.66;101671.91;5038487;28;20404;-58
2023/09/25 15:04:22;;;;;;;2.53;0.98;;;;;;;23.03;48.25;101674.22;5040377;28;20025;-59
2023/09/25 15:06:49;;;;;;;16.35;8.32;;;;;;;23.04;47.94;101673.81;5040413;28;20068;-58
2023/09/25 15:09:14;;;;;;;2.80;1.13;;;;;;;23.01;48.59;101674.66;5041531;28;20092;-60
2023/09/25 15:11:40;;;;;;;0.95;0.60;;;;;;;22.93;48.01;101678.69;5038704;28;20527;-60
2023/09/25 15:14:05;;;;;;;1.00;0.60;;;;;;;22.96;48.31;101683.34;5029646;28;20041;-60
2023/09/25 15:16:31;;;;;;;5.78;1.35;;;;;;;23.02;49.19;101684.44;5038573;28;20555;-60
2023/09/25 15:18:56;;;;;;;1.83;1.00;;;;;;;23.06;49.58;101689.88;5041323;28;20105;-60
2023/09/25 15:21:22;;;;;;;2.58;0.80;;;;;;;23.12;48.93;101694.50;5047020;28;20347;-58
2023/09/25 15:23:47;;;;;;;5.60;2.50;;;;;;;23.13;49.13;101695.28;5049866;28;20047;-61
2023/09/25 15:26:13;;;;;;;1.05;0.70;;;;;;;23.01;48.85;101691.13;5046358;28;20025;-58
2023/09/25 15:28:38;;;;;;;0.80;0.50;;;;;;;22.87;49.34;101683.06;5070764;28;20326;-57
2023/09/25 15:31:04;;;;;;;0.50;0.50;;;;;;;22.87;49.03;101676.78;5043241;28;20393;-60
2023/09/25 15:33:30;;;;;;;1.05;0.90;;;;;;;22.84;49.04;101683.88;5050823;28;20048;-58
2023/09/25 15:35:55;;;;;;;51.38;14.52;;;;;;;22.74;49.78;101682.09;5053492;28;20174;-58
2023/09/25 15:38:21;;;;;;;9.40;3.78;;;;;;;22.54;50.06;101683.09;5045993;28;20501;-57
2023/09/25 15:40:46;;;;;;;2.25;1.45;;;;;;;22.54;50.78;101678.38;5046851;28;20609;-58
2023/09/25 15:43:12;;;;;;;5.97;2.45;;;;;;;22.69;50.79;101676.25;5045026;28;20060;-58
2023/09/25 15:45:37;;;;;;;2.88;1.20;;;;;;;22.81;51.54;101686.69;5038235;28;20031;-59
2023/09/25 15:48:03;;;;;;;7.40;3.88;;;;;;;22.82;50.83;101674.53;5043598;28;20256;-58
2023/09/25 15:50:29;;;;;;;2.63;1.05;;;;;;;22.81;51.94;101675.69;5041791;28;20035;-59
2023/09/25 15:52:55;;;;;;;0.95;0.60;;;;;;;22.75;52.18;101672.63;5039486;28;20091;-59
2023/09/25 15:55:20;;;;;;;1.52;0.73;;;;;;;22.54;51.31;101667.38;5042111;28;20395;-58
2023/09/25 15:57:46;;;;;;;0.50;0.50;;;;;;;22.55;51.05;101670.91;5042546;28;20040;-59
2023/09/25 16:00:12;;;;;;;1.55;0.98;;;;;;;22.56;51.37;101664.22;5043504;28;20331;-58
2023/09/25 16:10:02;;;;;;;2.80;0.95;;;;;;;21.26;55.22;101663.53;5088784;27;20552;-60
2023/09/25 16:12:28;;;;;;;1.00;0.70;;;;;;;21.58;55.79;101679.72;5062458;28;20056;-59
2023/09/25 16:14:55;;;;;;;1.42;0.70;;;;;;;21.73;54.63;101679.22;5060038;28;20032;-60
2023/09/25 16:17:21;;;;;;;3.80;1.02;;;;;;;21.88;53.58;101680.66;5060487;28;20208;-60
2023/09/25 16:19:50;;;;;;;1.77;0.88;;;;;;;22.01;54.91;101670.72;5061910;28;20115;-59
2023/09/25 16:22:15;;;;;;;0.75;0.75;;;;;;;22.03;55.27;101675.81;5063465;28;20028;-60
2023/09/25 16:24:41;;;;;;;0.52;0.50;;;;;;;22.08;54.69;101664.41;5050553;28;20044;-60
2023/09/25 16:27:06;;;;;;;1.63;0.75;;;;;;;22.06;54.60;101664.03;5068925;28;20043;-60
2023/09/25 16:29:32;;;;;;;0.93;0.68;;;;;;;22.04;55.62;101667.19;5065335;28;20056;-60
2023/09/25 16:31:57;;;;;;;8.73;1.33;;;;;;;21.95;56.25;101672.34;5065385;28;20035;-60
2023/09/25 16:34:23;;;;;;;1.42;1.00;;;;;;;22.07;54.21;101666.34;5068372;28;20032;-59
2023/09/25 16:36:48;;;;;;;2.00;1.35;;;;;;;22.04;54.18;101666.41;5067812;28;20410;-60
2023/09/25 16:39:14;;;;;;;0.60;0.60;;;;;;;22.06;55.17;101664.81;5062201;28;20021;-59
2023/09/25 16:41:40;;;;;;;1.67;0.98;;;;;;;22.04;56.54;101672.66;5054533;28;20021;-59
2023/09/25 16:44:05;;;;;;;3.78;0.90;;;;;;;21.98;56.57;101676.25;5079685;28;20479;-59
2023/09/25 16:46:32;;;;;;;3.03;1.35;;;;;;;21.85;55.35;101669.72;5065303;28;20050;-60
2023/09/25 16:48:57;;;;;;;1.42;1.10;;;;;;;21.83;55.72;101683.06;5060023;28;20037;-60
2023/09/25 16:51:23;;;;;;;1.67;1.00;;;;;;;21.76;56.91;101678.38;5061932;28;20108;-60
2023/09/25 16:53:48;;;;;;;2.42;1.05;;;;;;;21.74;56.94;101677.25;5063591;28;20107;-60
2023/09/25 16:56:16;;;;;;;1.63;1.23;;;;;;;21.68;57.49;101676.88;5072516;28;20208;-59
2023/09/25 16:58:41;;;;;;;1.00;0.90;;;;;;;21.44;58.23;101677.88;5068456;28;20020;-61
2023/09/25 17:01:08;;;;;;;1.23;0.70;;;;;;;21.35;59.65;101683.81;5074149;28;20478;-60
2023/09/25 17:03:33;;;;;;;1.65;1.05;;;;;;;21.20;60.01;101676.09;5071774;28;20056;-61
2023/09/25 17:05:59;;;;;;;2.35;1.10;;;;;;;21.06;61.28;101679.69;5069789;28;20071;-61
2023/09/25 17:08:24;;;;;;;2.55;0.80;;;;;;;20.91;62.53;101680.16;5059719;28;20096;-61
2023/09/25 17:10:51;;;;;;;1.08;0.80;;;;;;;20.89;62.81;101691.50;5065669;28;20033;-61
2023/09/25 17:13:18;;;;;;;1.38;0.90;;;;;;;20.78;63.46;101684.53;5046464;28;20033;-61
2023/09/25 17:15:44;;;;;;;1.00;0.90;;;;;;;20.65;64.06;101681.47;5059611;28;20395;-60
2023/09/25 17:18:13;;;;;;;1.55;0.77;;;;;;;20.45;65.18;101677.63;5058159;28;20021;-61
2023/09/25 17:20:39;;;;;;;1.85;1.02;;;;;;;20.44;65.59;101668.63;5051987;28;20029;-61
2023/09/25 17:23:06;;;;;;;1.25;0.93;;;;;;;20.48;65.66;101676.81;5045539;28;20126;-59
2023/09/25 17:25:32;;;;;;;0.70;0.70;;;;;;;20.43;66.09;101671.75;5046236;28;20033;-60
2023/09/25 17:28:00;;;;;;;1.42;0.93;;;;;;;20.23;66.93;101678.84;5047013;28;20028;-59
2023/09/25 17:30:32;;;;;;;1.00;0.90;;;;;;;20.22;67.00;101682.78;5047653;28;20736;-59
2023/09/25 17:32:57;;;;;;;1.33;1.10;;;;;;;20.04;67.77;101680.06;5042468;28;20166;-59
2023/09/25 17:35:23;;;;;;;1.40;0.85;;;;;;;19.89;68.72;101678.50;5050498;28;20103;-59
2023/09/25 17:37:48;;;;;;;2.25;1.20;;;;;;;19.87;68.71;101682.81;5047059;28;20375;-59
2023/09/25 17:40:14;;;;;;;1.40;1.10;;;;;;;19.76;68.87;101680.84;5040767;28;20394;-59
2023/09/25 17:42:39;;;;;;;1.48;1.08;;;;;;;19.72;69.42;101687.53;5046078;28;20427;-60
2023/09/25 17:45:05;;;;;;;1.23;1.02;;;;;;;19.56;70.20;101693.38;5047062;28;20041;-60
2023/09/25 17:47:33;;;;;;;3.38;1.30;;;;;;;19.42;70.80;101696.09;5049066;28;20033;-60
2023/09/25 17:49:59;;;;;;;0.80;0.70;;;;;;;19.42;71.45;101681.63;5043257;28;20139;-60
2023/09/25 17:52:25;;;;;;;1.75;1.10;;;;;;;19.32;71.55;101683.19;5037432;28;20120;-60
2023/09/25 17:54:50;;;;;;;2.15;1.15;;;;;;;19.27;72.12;101686.28;5044872;28;20086;-59
2023/09/25 17:57:16;;;;;;;1.38;1.00;;;;;;;19.25;72.02;101688.63;5046049;28;20159;-57
2023/09/25 17:59:41;;;;;;;1.38;0.80;;;;;;;19.27;72.00;101696.44;5048313;28;20021;-60
2023/09/25 18:02:07;;;;;;;1.38;1.00;;;;;;;19.18;72.35;101693.31;5049519;28;20567;-58
2023/09/25 18:04:32;;;;;;;2.22;0.90;;;;;;;19.27;72.58;101691.75;5046804;28;20490;-61
2023/09/25 18:06:58;;;;;;;1.80;1.27;;;;;;;19.17;73.05;101694.44;5047914;28;20067;-58
2023/09/25 18:09:24;;;;;;;2.97;1.40;;;;;;;19.00;73.68;101698.72;5041294;28;20068;-58
2023/09/25 18:11:49;;;;;;;1.27;1.17;;;;;;;18.99;73.90;101697.13;5044791;28;20482;-59
2023/09/25 18:14:14;;;;;;;1.40;1.20;;;;;;;18.99;74.33;101696.38;5047574;28;20036;-60
2023/09/25 18:16:40;;;;;;;1.88;1.17;;;;;;;18.96;74.44;101697.91;5047392;28;20036;-60
2023/09/25 18:19:06;;;;;;;2.75;1.35;;;;;;;18.83;74.86;101705.66;5047227;28;20221;-59
2023/09/25 18:21:32;;;;;;;2.05;1.10;;;;;;;18.80;75.40;101706.44;5047330;28;20104;-60
2023/09/25 18:23:57;;;;;;;1.35;1.10;;;;;;;18.76;75.83;101704.88;5054942;28;20151;-58
2023/09/25 18:26:23;;;;;;;1.35;1.05;;;;;;;18.63;76.11;101707.16;5037771;28;20036;-58
2023/09/25 18:28:48;;;;;;;1.67;1.02;;;;;;;18.53;76.59;101701.63;5047139;28;20025;-58
2023/09/25 18:31:14;;;;;;;1.55;1.25;;;;;;;18.49;76.54;101690.72;5040468;28;20041;-60
2023/09/25 18:33:39;;;;;;;10.05;1.98;;;;;;;18.51;76.57;101695.78;5039604;28;20423;-58
2023/09/25 18:36:05;;;;;;;2.63;1.30;;;;;;;18.51;76.59;101685.66;5043844;28;20033;-60
2023/09/25 18:38:31;;;;;;;1.73;1.20;;;;;;;18.45;76.67;101692.66;5040874;28;20036;-60
2023/09/25 18:40:57;;;;;;;2.38;1.38;;;;;;;18.38;77.04;101699.97;5045690;28;20447;-60
2023/09/25 18:43:23;;;;;;;1.50;1.40;;;;;;;18.42;77.09;101704.34;5048682;28;20024;-58
2023/09/25 18:45:48;;;;;;;2.40;1.48;;;;;;;18.44;76.77;101696.56;5047276;28;20068;-60
2023/09/25 18:48:14;;;;;;;4.28;1.30;;;;;;;18.33;77.12;101703.09;5047540;28;20045;-60
2023/09/25 18:50:39;;;;;;;2.58;1.50;;;;;;;18.18;77.44;101704.13;5046206;28;20028;-59
2023/09/25 18:53:05;;;;;;;1.75;1.23;;;;;;;18.19;77.52;101698.31;5045607;28;20456;-57
2023/09/25 18:55:30;;;;;;;4.03;1.55;;;;;;;18.09;78.10;101699.03;5045872;28;20032;-60
2023/09/25 18:57:57;;;;;;;1.85;1.05;;;;;;;18.15;78.15;101705.69;5049884;28;20033;-59
2023/09/25 19:00:23;;;;;;;3.40;1.50;;;;;;;18.07;77.93;101700.56;5049263;28;20047;-60
2023/09/25 19:02:49;;;;;;;1.90;1.40;;;;;;;18.06;78.15;101699.03;5050242;28;20043;-60
2023/09/25 19:05:15;;;;;;;2.17;1.48;;;;;;;17.91;78.58;101709.81;5048002;28;20331;-60
2023/09/25 19:07:41;;;;;;;2.88;1.50;;;;;;;17.85;79.16;101700.41;5048473;28;20116;-62
2023/09/25 19:10:07;;;;;;;2.20;1.60;;;;;;;17.88;79.19;101705.13;5047891;28;20068;-59
2023/09/25 19:12:33;;;;;;;2.35;1.40;;;;;;;17.91;79.05;101709.03;5049039;28;20024;-58
2023/09/25 19:14:59;;;;;;;2.85;1.80;;;;;;;17.79;79.24;101709.31;5049509;28;20040;-59
2023/09/25 19:17:25;;;;;;;2.33;1.63;;;;;;;17.78;80.21;101715.94;5046874;28;20422;-58
2023/09/25 19:19:50;;;;;;;2.33;1.55;;;;;;;17.88;79.64;101713.31;5045700;28;20078;-59
2023/09/25 19:22:19;;;;;;;2.00;1.40;;;;;;;17.77;79.43;101709.69;5049077;28;20039;-59
2023/09/25 19:24:45;;;;;;;5.40;1.50;;;;;;;17.79;79.90;101712.03;5049782;28;20025;-59
2023/09/25 19:27:13;;;;;;;2.25;1.77;;;;;;;17.70;79.72;101709.66;5048777;28;20024;-59
2023/09/25 19:29:39;;;;;;;2.25;1.45;;;;;;;17.65;79.89;101704.53;5044995;28;20116;-60
2023/09/25 19:32:05;;;;;;;3.42;1.58;;;;;;;17.66;79.96;101706.09;5043943;28;20163;-60
2023/09/25 19:34:30;;;;;;;3.13;1.63;;;;;;;17.46;80.86;101707.44;5043548;28;20044;-60
2023/09/25 19:36:56;;;;;;;1.58;1.40;;;;;;;17.45;80.47;101713.28;5036645;28;21406;-60
2023/09/25 19:39:22;;;;;;;2.72;1.67;;;;;;;17.45;81.25;101703.16;5041753;28;20033;-58
2023/09/25 19:41:47;;;;;;;3.08;1.95;;;;;;;17.51;80.98;101709.88;5038883;28;20248;-60
2023/09/25 19:44:13;;;;;;;4.22;2.60;;;;;;;17.49;80.57;101709.47;5044509;28;20033;-60
2023/09/25 19:46:38;;;;;;;4.15;2.53;;;;;;;17.30;81.53;101714.31;5045598;28;20491;-60
2023/09/25 19:49:04;;;;;;;7.03;3.47;;;;;;;17.25;81.53;101707.25;5048463;28;20080;-60
2023/09/25 19:51:29;;;;;;;7.22;3.58;;;;;;;17.23;82.06;101719.69;5048478;28;20025;-60
2023/09/25 19:53:55;;;;;;;6.40;3.40;;;;;;;17.18;82.25;101715.34;5041523;28;20041;-60
2023/09/25 19:56:21;;;;;;;4.72;2.63;;;;;;;17.17;82.27;101714.56;5046379;28;20028;-59
2023/09/25 19:58:47;;;;;;;2.58;2.10;;;;;;;17.22;82.12;101716.16;5047230;28;20032;-60
2023/09/25 20:01:14;;;;;;;7.50;1.95;;;;;;;17.18;82.44;101718.06;5048886;28;20558;-60
2023/09/25 20:03:39;;;;;;;2.38;1.83;;;;;;;17.17;82.72;101713.00;5048236;28;20036;-59
2023/09/25 20:06:05;;;;;;;2.50;1.90;;;;;;;17.19;82.46;101707.97;5050075;28;20063;-60
2023/09/25 20:08:32;;;;;;;2.28;1.67;;;;;;;17.22;82.27;101715.38;5043716;28;20052;-60
2023/09/25 20:10:57;;;;;;;1.63;1.35;;;;;;;17.08;82.18;101714.06;5047848;28;20401;-60
2023/09/25 20:13:23;;;;;;;2.15;1.70;;;;;;;16.86;83.02;101709.53;5036932;28;20320;-59
2023/09/25 20:15:49;;;;;;;3.03;1.65;;;;;;;16.83;83.58;101715.72;5032569;28;20203;-59
2023/09/25 20:18:15;;;;;;;2.33;1.60;;;;;;;16.78;84.04;101710.59;5036899;28;20070;-57
2023/09/25 20:20:55;;;;;;;2.92;1.90;;;;;;;16.89;83.52;101711.53;5044533;28;20112;-59
2023/09/25 20:23:22;;;;;;;3.10;1.70;;;;;;;16.87;83.74;101710.31;5047737;28;20032;-59
2023/09/25 20:25:48;;;;;;;1.95;1.42;;;;;;;16.92;83.68;101699.09;5048540;28;20025;-59
2023/09/25 20:28:14;;;;;;;3.30;1.73;;;;;;;16.72;84.29;101703.16;5048397;28;20021;-61
2023/09/25 20:30:41;;;;;;;2.80;1.73;;;;;;;16.68;84.42;101705.84;5049625;28;20032;-60
2023/09/25 20:33:17;;;;;;;3.38;1.70;;;;;;;16.81;84.22;101709.09;5048005;28;20028;-59
2023/09/25 20:35:42;;;;;;;2.15;1.95;;;;;;;16.75;83.77;101708.63;5045588;28;20033;-58
2023/09/25 20:38:08;;;;;;;2.67;1.63;;;;;;;16.75;83.92;101708.63;5047759;28;20036;-59
2023/09/25 20:40:34;;;;;;;2.38;1.67;;;;;;;16.78;83.76;101701.69;5036494;28;20040;-59
2023/09/25 20:42:59;;;;;;;3.15;1.80;;;;;;;16.69;84.05;101710.13;5048735;28;20029;-59
2023/09/25 20:45:26;;;;;;;2.08;1.45;;;;;;;16.71;83.82;101702.38;5045557;28;20479;-56
2023/09/25 20:47:53;;;;;;;3.17;1.90;;;;;;;16.70;83.89;101703.53;5049751;28;20491;-58
2023/09/25 20:50:25;;;;;;;3.08;1.83;;;;;;;16.48;84.75;101715.28;5048542;28;20028;-58
2023/09/25 20:52:54;;;;;;;3.13;1.90;;;;;;;16.49;85.12;101705.19;5048219;28;20699;-54
2023/09/25 20:55:20;;;;;;;4.22;2.33;;;;;;;16.54;85.00;101704.84;5049278;28;20051;-61
2023/09/25 20:57:48;;;;;;;3.22;1.90;;;;;;;16.52;84.82;101707.94;5051696;28;20025;-61
2023/09/25 21:00:14;;;;;;;1.90;1.45;;;;;;;16.48;85.03;101709.00;5051613;28;20113;-61
2023/09/25 21:02:40;;;;;;;3.30;1.88;;;;;;;16.49;84.72;101707.91;5050451;28;20102;-61
2023/09/25 21:05:06;;;;;;;4.32;1.50;;;;;;;16.53;84.56;101711.47;5052977;28;20029;-61
2023/09/25 21:07:31;;;;;;;2.30;1.67;;;;;;;16.50;84.81;101707.53;5050382;28;20372;-60
2023/09/25 21:09:57;;;;;;;2.95;1.25;;;;;;;16.57;83.89;101706.84;5052271;28;20025;-61
2023/09/25 21:12:26;;;;;;;2.22;1.48;;;;;;;16.39;84.07;101701.16;5050524;28;20047;-61
2023/09/25 21:14:51;;;;;;;2.83;1.38;;;;;;;16.41;83.48;101703.50;5052522;28;20041;-60
2023/09/25 21:17:17;;;;;;;3.15;1.70;;;;;;;16.29;84.22;101707.22;5050484;28;20672;-61
2023/09/25 21:19:42;;;;;;;1.60;1.20;;;;;;;16.35;84.19;101711.19;5047127;28;20066;-60
2023/09/25 21:22:08;;;;;;;2.17;1.10;;;;;;;16.38;84.13;101706.94;5048436;28;20051;-59
2023/09/25 21:24:33;;;;;;;2.30;1.48;;;;;;;16.32;83.96;101708.44;5051699;28;20365;-61
2023/09/25 21:27:02;;;;;;;2.58;1.80;;;;;;;16.24;83.95;101711.03;5058879;28;20434;-61
2023/09/25 21:29:28;;;;;;;5.88;1.67;;;;;;;16.07;85.05;101705.31;5056779;28;20033;-61
2023/09/25 21:31:53;;;;;;;1.80;1.40;;;;;;;16.07;84.68;101703.41;5053904;28;20043;-58
2023/09/25 21:34:19;;;;;;;1.27;1.17;;;;;;;16.02;84.15;101706.44;5049160;28;20029;-60
2023/09/25 21:36:44;;;;;;;1.73;1.35;;;;;;;15.96;84.49;101704.38;5056554;28;20070;-57
2023/09/25 21:39:09;;;;;;;1.55;1.00;;;;;;;15.92;84.80;101704.34;5054720;28;20024;-60
2023/09/25 21:41:35;;;;;;;9.18;1.52;;;;;;;15.84;84.30;101707.28;5057703;28;20037;-60
2023/09/25 21:44:00;;;;;;;1.27;1.10;;;;;;;15.84;84.90;101696.44;5053294;28;20491;-58
2023/09/25 21:46:26;;;;;;;1.42;1.33;;;;;;;15.82;85.01;101698.72;5059816;28;20509;-60
2023/09/25 21:48:51;;;;;;;2.42;1.52;;;;;;;15.74;84.92;101697.84;5051768;28;20407;-60
2023/09/25 21:51:17;;;;;;;4.80;1.80;;;;;;;15.63;85.08;101696.88;5045895;28;20487;-58
2023/09/25 21:53:43;;;;;;;2.83;1.45;;;;;;;15.56;85.76;101690.56;5049786;28;20506;-57
2023/09/25 21:56:09;;;;;;;2.45;1.48;;;;;;;15.49;85.86;101693.91;5047865;28;20208;-60
2023/09/25 21:58:34;;;;;;;2.53;1.35;;;;;;;15.38;85.91;101684.78;5050111;28;20033;-60
2023/09/25 22:01:00;;;;;;;3.20;1.40;;;;;;;15.41;86.73;101686.00;5052697;28;20043;-59
2023/09/25 22:03:25;;;;;;;1.52;1.25;;;;;;;15.47;85.90;101682.63;5050190;28;20102;-58
2023/09/25 22:05:51;;;;;;;2.00;1.35;;;;;;;15.50;85.83;101683.84;5050300;28;20043;-60
2023/09/25 22:08:16;;;;;;;1.40;1.08;;;;;;;15.49;85.71;101691.19;5054197;28;20407;-58
2023/09/25 22:10:42;;;;;;;4.22;1.67;;;;;;;15.43;85.98;101684.50;5051863;28;20043;-60
2023/09/25 22:13:08;;;;;;;3.35;1.63;;;;;;;15.42;86.49;101684.88;5053134;28;20086;-61
2023/09/25 22:15:34;;;;;;;1.98;1.20;;;;;;;15.34;86.46;101678.50;5049121;28;20037;-60
2023/09/25 22:17:59;;;;;;;1.75;1.20;;;;;;;15.39;85.99;101683.63;5049832;28;20029;-60
2023/09/25 22:20:26;;;;;;;3.55;1.50;;;;;;;15.38;85.96;101682.88;5049024;28;20487;-61
2023/09/25 22:22:56;;;;;;;1.65;1.20;;;;;;;15.37;85.61;101681.28;5052483;28;20273;-60
2023/09/25 22:25:23;;;;;;;2.15;1.23;;;;;;;15.33;85.45;101672.28;5056109;28;20123;-59
2023/09/25 22:27:49;;;;;;;2.53;1.15;;;;;;;15.09;85.82;101671.84;5064737;28;20078;-61
2023/09/25 22:30:15;;;;;;;2.35;1.65;;;;;;;14.99;87.04;101678.66;5059491;28;20037;-60
2023/09/25 22:32:45;;;;;;;1.98;1.23;;;;;;;14.98;87.17;101671.63;5048757;28;20455;-60
2023/09/25 22:35:11;;;;;;;1.30;1.15;;;;;;;14.96;87.74;101675.88;5052172;28;20094;-59
2023/09/25 22:37:37;;;;;;;1.65;1.20;;;;;;;15.02;87.84;101683.34;5052543;28;20519;-61
2023/09/25 22:40:07;;;;;;;2.15;1.38;;;;;;;15.15;87.28;101668.50;5047651;28;20032;-58